sensor_id;sensor_type;location;lat;lon;timestamp;temperature;humidity
5617;DHT22;2830;50.656;7.568;2023-07-13T00:00:47;17.20;99.90
5617;DHT22;2830;50.656;7.568;2023-07-13T00:03:14;17.10;99.90
5617;DHT22;2830;50.656;7.568;2023-07-13T00:05:41;17.00;99.90
5617;DHT22;2830;50.656;7.568;2023-07-13T00:08:08;16.80;99.90
5617;DHT22;2830;50.656;7.568;2023-07-13T00:10:39;16.70;99.90
5617;DHT22;2830;50.656;7.568;2023-07-13T00:13:07;16.50;99.90
5617;DHT22;2830;50.656;7.568;2023-07-13T00:15:35;16.40;99.90
5617;DHT22;2830;50.656;7.568;2023-07-13T00:18:02;16.30;99.90
5617;DHT22;2830;50.656;7.568;2023-07-13T00:20:29;16.20;99.90
5617;DHT22;2830;50.656;7.568;2023-07-13T00:22:56;16.10;99.90
5617;DHT22;2830;50.656;7.568;2023-07-13T00:25:24;16.00;99.90
5617;DHT22;2830;50.656;7.568;2023-07-13T00:27:51;16.00;99.90
5617;DHT22;2830;50.656;7.568;2023-07-13T00:30:17;15.80;99.90
5617;DHT22;2830;50.656;7.568;2023-07-13T00:32:44;15.70;99.90
5617;DHT22;2830;50.656;7.568;2023-07-13T00:35:14;15.60;99.90
5617;DHT22;2830;50.656;7.568;2023-07-13T00:37:42;15.50;99.90
5617;DHT22;2830;50.656;7.568;2023-07-13T00:40:11;15.50;99.90
5617;DHT22;2830;50.656;7.568;2023-07-13T00:42:39;15.40;99.90
5617;DHT22;2830;50.656;7.568;2023-07-13T00:47:54;15.20;99.90
5617;DHT22;2830;50.656;7.568;2023-07-13T00:50:24;15.10;99.90
5617;DHT22;2830;50.656;7.568;2023-07-13T00:52:54;15.10;99.90
5617;DHT22;2830;50.656;7.568;2023-07-13T00:55:22;15.00;99.90
5617;DHT22;2830;50.656;7.568;2023-07-13T00:57:48;14.90;99.90
5617;DHT22;2830;50.656;7.568;2023-07-13T01:00:15;14.90;99.90
5617;DHT22;2830;50.656;7.568;2023-07-13T01:02:45;14.90;99.90
5617;DHT22;2830;50.656;7.568;2023-07-13T01:05:15;14.80;99.90
5617;DHT22;2830;50.656;7.568;2023-07-13T01:07:44;14.80;99.90
5617;DHT22;2830;50.656;7.568;2023-07-13T01:10:12;14.80;99.90
5617;DHT22;2830;50.656;7.568;2023-07-13T01:12:39;14.70;99.90
5617;DHT22;2830;50.656;7.568;2023-07-13T01:15:32;14.60;99.90
5617;DHT22;2830;50.656;7.568;2023-07-13T01:17:53;14.60;99.90
5617;DHT22;2830;50.656;7.568;2023-07-13T01:20:21;14.40;99.90
5617;DHT22;2830;50.656;7.568;2023-07-13T01:22:48;14.50;99.90
5617;DHT22;2830;50.656;7.568;2023-07-13T01:25:15;14.40;99.90
5617;DHT22;2830;50.656;7.568;2023-07-13T01:27:41;14.40;99.90
5617;DHT22;2830;50.656;7.568;2023-07-13T01:30:08;14.20;99.90
5617;DHT22;2830;50.656;7.568;2023-07-13T01:32:35;14.40;99.90
5617;DHT22;2830;50.656;7.568;2023-07-13T01:35:03;14.30;99.90
5617;DHT22;2830;50.656;7.568;2023-07-13T01:37:30;14.20;99.90
5617;DHT22;2830;50.656;7.568;2023-07-13T01:39:59;14.10;99.90
5617;DHT22;2830;50.656;7.568;2023-07-13T01:42:28;14.00;99.90
5617;DHT22;2830;50.656;7.568;2023-07-13T01:44:54;14.00;99.90
5617;DHT22;2830;50.656;7.568;2023-07-13T01:47:22;13.90;99.90
5617;DHT22;2830;50.656;7.568;2023-07-13T01:49:50;13.90;99.90
5617;DHT22;2830;50.656;7.568;2023-07-13T01:52:18;13.90;99.90
5617;DHT22;2830;50.656;7.568;2023-07-13T01:54:45;13.80;99.90
5617;DHT22;2830;50.656;7.568;2023-07-13T01:57:11;13.70;99.90
5617;DHT22;2830;50.656;7.568;2023-07-13T01:59:38;13.70;99.90
5617;DHT22;2830;50.656;7.568;2023-07-13T02:02:05;13.70;99.90
5617;DHT22;2830;50.656;7.568;2023-07-13T02:04:32;13.60;99.90
5617;DHT22;2830;50.656;7.568;2023-07-13T02:06:58;13.60;99.90
5617;DHT22;2830;50.656;7.568;2023-07-13T02:09:25;13.40;99.90
5617;DHT22;2830;50.656;7.568;2023-07-13T02:11:52;13.40;99.90
5617;DHT22;2830;50.656;7.568;2023-07-13T02:14:19;13.40;99.90
5617;DHT22;2830;50.656;7.568;2023-07-13T02:16:45;13.30;99.90
5617;DHT22;2830;50.656;7.568;2023-07-13T02:19:12;13.30;99.90
5617;DHT22;2830;50.656;7.568;2023-07-13T02:21:40;13.30;99.90
5617;DHT22;2830;50.656;7.568;2023-07-13T02:24:07;13.20;99.90
5617;DHT22;2830;50.656;7.568;2023-07-13T02:26:34;13.30;99.90
5617;DHT22;2830;50.656;7.568;2023-07-13T02:29:01;13.20;99.90
5617;DHT22;2830;50.656;7.568;2023-07-13T02:31:28;13.20;99.90
5617;DHT22;2830;50.656;7.568;2023-07-13T02:33:54;13.10;99.90
5617;DHT22;2830;50.656;7.568;2023-07-13T02:36:21;13.00;99.90
5617;DHT22;2830;50.656;7.568;2023-07-13T02:38:49;13.00;99.90
5617;DHT22;2830;50.656;7.568;2023-07-13T02:41:16;12.90;99.90
5617;DHT22;2830;50.656;7.568;2023-07-13T02:43:43;12.90;99.90
5617;DHT22;2830;50.656;7.568;2023-07-13T02:46:10;12.90;99.90
5617;DHT22;2830;50.656;7.568;2023-07-13T02:48:38;12.90;99.90
5617;DHT22;2830;50.656;7.568;2023-07-13T02:51:07;12.80;99.90
5617;DHT22;2830;50.656;7.568;2023-07-13T02:53:34;12.80;99.90
5617;DHT22;2830;50.656;7.568;2023-07-13T02:56:03;12.90;99.90
5617;DHT22;2830;50.656;7.568;2023-07-13T02:58:31;12.80;99.90
5617;DHT22;2830;50.656;7.568;2023-07-13T03:00:57;12.80;99.90
5617;DHT22;2830;50.656;7.568;2023-07-13T03:03:24;12.80;99.90
5617;DHT22;2830;50.656;7.568;2023-07-13T03:05:59;12.80;99.90
5617;DHT22;2830;50.656;7.568;2023-07-13T03:08:26;12.90;99.90
5617;DHT22;2830;50.656;7.568;2023-07-13T03:11:05;12.90;99.90
5617;DHT22;2830;50.656;7.568;2023-07-13T03:13:32;12.90;99.90
5617;DHT22;2830;50.656;7.568;2023-07-13T03:15:59;12.90;99.90
5617;DHT22;2830;50.656;7.568;2023-07-13T03:18:27;13.00;99.90
5617;DHT22;2830;50.656;7.568;2023-07-13T03:20:54;13.10;99.90
5617;DHT22;2830;50.656;7.568;2023-07-13T03:23:22;13.10;99.90
5617;DHT22;2830;50.656;7.568;2023-07-13T03:25:48;13.10;99.90
5617;DHT22;2830;50.656;7.568;2023-07-13T03:28:15;13.10;99.90
5617;DHT22;2830;50.656;7.568;2023-07-13T03:30:42;13.00;99.90
5617;DHT22;2830;50.656;7.568;2023-07-13T03:33:09;13.10;99.90
5617;DHT22;2830;50.656;7.568;2023-07-13T03:35:40;13.10;99.90
5617;DHT22;2830;50.656;7.568;2023-07-13T03:38:06;13.10;99.90
5617;DHT22;2830;50.656;7.568;2023-07-13T03:40:33;13.30;99.90
5617;DHT22;2830;50.656;7.568;2023-07-13T03:43:00;13.40;99.90
5617;DHT22;2830;50.656;7.568;2023-07-13T03:45:29;13.60;99.90
5617;DHT22;2830;50.656;7.568;2023-07-13T03:47:55;13.70;99.90
5617;DHT22;2830;50.656;7.568;2023-07-13T03:50:22;13.70;99.90
5617;DHT22;2830;50.656;7.568;2023-07-13T03:52:49;13.70;99.90
5617;DHT22;2830;50.656;7.568;2023-07-13T03:55:15;13.70;99.90
5617;DHT22;2830;50.656;7.568;2023-07-13T03:57:42;13.70;99.90
5617;DHT22;2830;50.656;7.568;2023-07-13T04:00:09;13.80;99.90
5617;DHT22;2830;50.656;7.568;2023-07-13T04:02:37;13.80;99.90
5617;DHT22;2830;50.656;7.568;2023-07-13T04:05:04;13.80;99.90
5617;DHT22;2830;50.656;7.568;2023-07-13T04:07:31;13.70;99.90
5617;DHT22;2830;50.656;7.568;2023-07-13T04:09:57;13.70;99.90
5617;DHT22;2830;50.656;7.568;2023-07-13T04:12:24;13.50;99.90
5617;DHT22;2830;50.656;7.568;2023-07-13T04:14:51;13.60;99.90
5617;DHT22;2830;50.656;7.568;2023-07-13T04:17:17;13.60;99.90
5617;DHT22;2830;50.656;7.568;2023-07-13T04:19:44;13.60;99.90
5617;DHT22;2830;50.656;7.568;2023-07-13T04:22:11;13.80;99.90
5617;DHT22;2830;50.656;7.568;2023-07-13T04:24:37;13.80;99.90
5617;DHT22;2830;50.656;7.568;2023-07-13T04:27:04;13.90;99.90
5617;DHT22;2830;50.656;7.568;2023-07-13T04:29:31;14.00;99.90
5617;DHT22;2830;50.656;7.568;2023-07-13T04:31:58;14.00;99.90
5617;DHT22;2830;50.656;7.568;2023-07-13T04:34:26;13.90;99.90
5617;DHT22;2830;50.656;7.568;2023-07-13T04:36:52;14.00;99.90
5617;DHT22;2830;50.656;7.568;2023-07-13T04:39:19;14.10;99.90
5617;DHT22;2830;50.656;7.568;2023-07-13T04:41:47;14.20;99.90
5617;DHT22;2830;50.656;7.568;2023-07-13T04:44:15;14.20;99.90
5617;DHT22;2830;50.656;7.568;2023-07-13T04:46:43;14.40;99.90
5617;DHT22;2830;50.656;7.568;2023-07-13T04:49:10;14.30;99.90
5617;DHT22;2830;50.656;7.568;2023-07-13T04:51:37;14.50;99.90
5617;DHT22;2830;50.656;7.568;2023-07-13T04:54:03;14.60;99.90
5617;DHT22;2830;50.656;7.568;2023-07-13T04:56:31;14.70;99.90
5617;DHT22;2830;50.656;7.568;2023-07-13T04:58:58;14.80;99.90
5617;DHT22;2830;50.656;7.568;2023-07-13T05:01:25;14.90;99.90
5617;DHT22;2830;50.656;7.568;2023-07-13T05:03:51;15.00;99.90
5617;DHT22;2830;50.656;7.568;2023-07-13T05:06:18;15.10;99.90
5617;DHT22;2830;50.656;7.568;2023-07-13T05:08:45;15.40;99.90
5617;DHT22;2830;50.656;7.568;2023-07-13T05:11:12;15.50;99.90
5617;DHT22;2830;50.656;7.568;2023-07-13T05:13:39;15.70;99.90
5617;DHT22;2830;50.656;7.568;2023-07-13T05:16:06;15.90;99.90
5617;DHT22;2830;50.656;7.568;2023-07-13T05:18:35;16.00;99.90
5617;DHT22;2830;50.656;7.568;2023-07-13T05:21:05;16.10;99.90
5617;DHT22;2830;50.656;7.568;2023-07-13T05:23:33;16.20;99.90
5617;DHT22;2830;50.656;7.568;2023-07-13T05:26:01;16.30;99.90
5617;DHT22;2830;50.656;7.568;2023-07-13T05:28:29;16.40;99.90
5617;DHT22;2830;50.656;7.568;2023-07-13T05:30:56;16.70;99.90
5617;DHT22;2830;50.656;7.568;2023-07-13T05:33:24;17.10;99.90
5617;DHT22;2830;50.656;7.568;2023-07-13T05:35:51;17.80;99.90
5617;DHT22;2830;50.656;7.568;2023-07-13T05:38:18;18.30;99.90
5617;DHT22;2830;50.656;7.568;2023-07-13T05:40:45;18.60;99.90
5617;DHT22;2830;50.656;7.568;2023-07-13T05:43:12;19.00;99.90
5617;DHT22;2830;50.656;7.568;2023-07-13T05:45:40;19.50;97.80
5617;DHT22;2830;50.656;7.568;2023-07-13T05:48:07;19.70;97.30
5617;DHT22;2830;50.656;7.568;2023-07-13T05:50:33;20.20;96.50
5617;DHT22;2830;50.656;7.568;2023-07-13T05:53:00;20.90;95.50
5617;DHT22;2830;50.656;7.568;2023-07-13T05:55:27;21.40;94.10
5617;DHT22;2830;50.656;7.568;2023-07-13T05:57:54;21.80;93.30
5617;DHT22;2830;50.656;7.568;2023-07-13T06:00:20;22.30;92.70
5617;DHT22;2830;50.656;7.568;2023-07-13T06:02:47;22.30;91.10
5617;DHT22;2830;50.656;7.568;2023-07-13T06:05:14;22.20;91.00
5617;DHT22;2830;50.656;7.568;2023-07-13T06:07:41;21.80;91.10
5617;DHT22;2830;50.656;7.568;2023-07-13T06:10:09;22.10;90.90
5617;DHT22;2830;50.656;7.568;2023-07-13T06:12:36;22.20;91.70
5617;DHT22;2830;50.656;7.568;2023-07-13T06:15:03;22.70;89.80
5617;DHT22;2830;50.656;7.568;2023-07-13T06:17:30;22.70;87.40
5617;DHT22;2830;50.656;7.568;2023-07-13T06:19:57;22.50;89.20
5617;DHT22;2830;50.656;7.568;2023-07-13T06:22:24;22.60;87.80
5617;DHT22;2830;50.656;7.568;2023-07-13T06:24:51;22.60;88.20
5617;DHT22;2830;50.656;7.568;2023-07-13T06:27:18;22.60;87.10
5617;DHT22;2830;50.656;7.568;2023-07-13T06:29:44;23.00;87.80
5617;DHT22;2830;50.656;7.568;2023-07-13T06:32:11;23.30;86.40
5617;DHT22;2830;50.656;7.568;2023-07-13T06:34:38;23.40;84.20
5617;DHT22;2830;50.656;7.568;2023-07-13T06:37:08;23.70;84.00
5617;DHT22;2830;50.656;7.568;2023-07-13T06:39:35;24.10;81.80
5617;DHT22;2830;50.656;7.568;2023-07-13T06:42:01;23.60;81.30
5617;DHT22;2830;50.656;7.568;2023-07-13T06:44:28;24.10;80.30
5617;DHT22;2830;50.656;7.568;2023-07-13T06:46:56;24.00;80.50
5617;DHT22;2830;50.656;7.568;2023-07-13T06:49:23;23.70;80.80
5617;DHT22;2830;50.656;7.568;2023-07-13T06:51:49;23.50;80.60
5617;DHT22;2830;50.656;7.568;2023-07-13T06:54:16;23.80;81.70
5617;DHT22;2830;50.656;7.568;2023-07-13T06:56:51;23.80;80.80
5617;DHT22;2830;50.656;7.568;2023-07-13T06:59:18;23.80;79.30
5617;DHT22;2830;50.656;7.568;2023-07-13T07:01:45;23.70;80.20
5617;DHT22;2830;50.656;7.568;2023-07-13T07:04:12;23.80;81.00
5617;DHT22;2830;50.656;7.568;2023-07-13T07:06:38;23.80;79.70
5617;DHT22;2830;50.656;7.568;2023-07-13T07:09:05;23.60;82.00
5617;DHT22;2830;50.656;7.568;2023-07-13T07:11:32;23.50;82.70
5617;DHT22;2830;50.656;7.568;2023-07-13T07:13:59;22.70;82.80
5617;DHT22;2830;50.656;7.568;2023-07-13T07:16:25;22.50;86.80
5617;DHT22;2830;50.656;7.568;2023-07-13T07:18:52;22.50;86.00
5617;DHT22;2830;50.656;7.568;2023-07-13T07:21:19;22.70;85.80
5617;DHT22;2830;50.656;7.568;2023-07-13T07:23:46;23.00;86.20
5617;DHT22;2830;50.656;7.568;2023-07-13T07:26:12;23.10;83.90
5617;DHT22;2830;50.656;7.568;2023-07-13T07:28:41;23.10;85.70
5617;DHT22;2830;50.656;7.568;2023-07-13T07:31:12;23.20;82.70
5617;DHT22;2830;50.656;7.568;2023-07-13T07:33:42;22.80;84.40
5617;DHT22;2830;50.656;7.568;2023-07-13T07:36:09;23.00;85.10
5617;DHT22;2830;50.656;7.568;2023-07-13T07:38:39;23.10;85.20
5617;DHT22;2830;50.656;7.568;2023-07-13T07:41:06;23.70;81.50
5617;DHT22;2830;50.656;7.568;2023-07-13T07:43:36;24.00;82.10
5617;DHT22;2830;50.656;7.568;2023-07-13T07:46:03;24.80;83.70
5617;DHT22;2830;50.656;7.568;2023-07-13T07:48:31;25.60;76.20
5617;DHT22;2830;50.656;7.568;2023-07-13T07:50:58;26.20;76.00
5617;DHT22;2830;50.656;7.568;2023-07-13T07:53:24;26.40;75.70
5617;DHT22;2830;50.656;7.568;2023-07-13T07:55:51;26.80;73.30
5617;DHT22;2830;50.656;7.568;2023-07-13T07:58:21;26.70;74.50
5617;DHT22;2830;50.656;7.568;2023-07-13T08:00:51;26.70;71.00
5617;DHT22;2830;50.656;7.568;2023-07-13T08:03:20;26.40;71.70
5617;DHT22;2830;50.656;7.568;2023-07-13T08:05:53;26.20;74.00
5617;DHT22;2830;50.656;7.568;2023-07-13T08:08:23;26.40;71.40
5617;DHT22;2830;50.656;7.568;2023-07-13T08:10:50;26.60;74.50
5617;DHT22;2830;50.656;7.568;2023-07-13T08:13:17;27.40;72.20
5617;DHT22;2830;50.656;7.568;2023-07-13T08:15:44;27.80;69.60
5617;DHT22;2830;50.656;7.568;2023-07-13T08:18:11;27.20;68.00
5617;DHT22;2830;50.656;7.568;2023-07-13T08:20:39;27.10;68.80
5617;DHT22;2830;50.656;7.568;2023-07-13T08:23:07;26.90;68.20
5617;DHT22;2830;50.656;7.568;2023-07-13T08:25:36;27.00;72.70
5617;DHT22;2830;50.656;7.568;2023-07-13T08:28:04;27.20;79.70
5617;DHT22;2830;50.656;7.568;2023-07-13T08:30:31;27.20;77.90
5617;DHT22;2830;50.656;7.568;2023-07-13T08:32:57;27.10;71.90
5617;DHT22;2830;50.656;7.568;2023-07-13T08:35:24;26.90;74.30
5617;DHT22;2830;50.656;7.568;2023-07-13T08:37:52;27.50;75.50
5617;DHT22;2830;50.656;7.568;2023-07-13T08:40:22;28.10;74.50
5617;DHT22;2830;50.656;7.568;2023-07-13T08:42:54;28.40;70.70
5617;DHT22;2830;50.656;7.568;2023-07-13T08:45:34;28.10;70.30
5617;DHT22;2830;50.656;7.568;2023-07-13T08:50:59;28.90;70.50
5617;DHT22;2830;50.656;7.568;2023-07-13T08:53:38;29.90;71.80
5617;DHT22;2830;50.656;7.568;2023-07-13T08:56:17;29.60;70.20
5617;DHT22;2830;50.656;7.568;2023-07-13T08:58:48;29.00;67.70
5617;DHT22;2830;50.656;7.568;2023-07-13T09:04:11;28.80;68.10
5617;DHT22;2830;50.656;7.568;2023-07-13T09:07:02;28.80;65.00
5617;DHT22;2830;50.656;7.568;2023-07-13T09:12:16;29.50;61.40
5617;DHT22;2830;50.656;7.568;2023-07-13T09:14:50;29.90;64.50
5617;DHT22;2830;50.656;7.568;2023-07-13T09:17:27;30.10;63.00
5617;DHT22;2830;50.656;7.568;2023-07-13T09:20:00;29.80;62.70
5617;DHT22;2830;50.656;7.568;2023-07-13T09:22:33;29.60;61.40
5617;DHT22;2830;50.656;7.568;2023-07-13T09:25:06;29.60;60.60
5617;DHT22;2830;50.656;7.568;2023-07-13T09:27:43;29.30;63.40
5617;DHT22;2830;50.656;7.568;2023-07-13T09:30:18;29.20;62.20
5617;DHT22;2830;50.656;7.568;2023-07-13T09:32:51;28.80;63.70
5617;DHT22;2830;50.656;7.568;2023-07-13T09:35:25;29.60;62.90
5617;DHT22;2830;50.656;7.568;2023-07-13T09:38:04;30.00;56.70
5617;DHT22;2830;50.656;7.568;2023-07-13T09:40:47;30.60;56.30
5617;DHT22;2830;50.656;7.568;2023-07-13T09:43:17;30.30;56.00
5617;DHT22;2830;50.656;7.568;2023-07-13T09:45:46;30.90;53.10
5617;DHT22;2830;50.656;7.568;2023-07-13T09:48:15;32.00;55.20
5617;DHT22;2830;50.656;7.568;2023-07-13T09:50:43;32.60;52.70
5617;DHT22;2830;50.656;7.568;2023-07-13T09:53:16;31.60;51.20
5617;DHT22;2830;50.656;7.568;2023-07-13T09:55:47;31.20;52.00
5617;DHT22;2830;50.656;7.568;2023-07-13T09:58:22;30.50;52.00
5617;DHT22;2830;50.656;7.568;2023-07-13T10:00:56;30.20;53.30
5617;DHT22;2830;50.656;7.568;2023-07-13T10:03:29;29.60;54.70
5617;DHT22;2830;50.656;7.568;2023-07-13T10:06:14;28.90;55.70
5617;DHT22;2830;50.656;7.568;2023-07-13T10:08:43;28.00;56.20
5617;DHT22;2830;50.656;7.568;2023-07-13T10:13:52;27.20;58.00
5617;DHT22;2830;50.656;7.568;2023-07-13T10:16:27;27.70;59.80
5617;DHT22;2830;50.656;7.568;2023-07-13T10:19:03;28.50;56.20
5617;DHT22;2830;50.656;7.568;2023-07-13T10:21:59;28.80;57.00
5617;DHT22;2830;50.656;7.568;2023-07-13T10:24:35;28.00;55.60
5617;DHT22;2830;50.656;7.568;2023-07-13T10:27:32;27.10;58.30
5617;DHT22;2830;50.656;7.568;2023-07-13T10:30:11;26.50;61.30
5617;DHT22;2830;50.656;7.568;2023-07-13T10:32:43;25.90;61.20
5617;DHT22;2830;50.656;7.568;2023-07-13T10:35:12;25.40;61.30
5617;DHT22;2830;50.656;7.568;2023-07-13T10:38:06;25.40;66.40
5617;DHT22;2830;50.656;7.568;2023-07-13T10:40:40;25.90;62.40
5617;DHT22;2830;50.656;7.568;2023-07-13T10:43:32;27.20;64.20
5617;DHT22;2830;50.656;7.568;2023-07-13T10:46:01;29.50;58.90
5617;DHT22;2830;50.656;7.568;2023-07-13T10:48:28;30.50;53.60
5617;DHT22;2830;50.656;7.568;2023-07-13T10:50:58;31.00;52.70
5617;DHT22;2830;50.656;7.568;2023-07-13T10:56:00;29.50;56.40
5617;DHT22;2830;50.656;7.568;2023-07-13T10:58:35;29.30;57.40
5617;DHT22;2830;50.656;7.568;2023-07-13T11:01:10;29.20;55.50
5617;DHT22;2830;50.656;7.568;2023-07-13T11:12:27;26.80;56.60
5617;DHT22;2830;50.656;7.568;2023-07-13T11:25:30;26.80;61.40
5617;DHT22;2830;50.656;7.568;2023-07-13T11:28:15;26.90;61.20
5617;DHT22;2830;50.656;7.568;2023-07-13T11:30:58;26.70;58.50
5617;DHT22;2830;50.656;7.568;2023-07-13T11:36:16;27.70;57.50
5617;DHT22;2830;50.656;7.568;2023-07-13T11:38:55;29.20;55.10
5617;DHT22;2830;50.656;7.568;2023-07-13T11:41:44;28.20;54.50
5617;DHT22;2830;50.656;7.568;2023-07-13T11:44:18;26.90;55.80
5617;DHT22;2830;50.656;7.568;2023-07-13T11:46:51;26.00;57.60
5617;DHT22;2830;50.656;7.568;2023-07-13T11:49:24;25.40;59.30
5617;DHT22;2830;50.656;7.568;2023-07-13T11:51:52;25.40;60.20
5617;DHT22;2830;50.656;7.568;2023-07-13T11:54:25;25.60;60.00
5617;DHT22;2830;50.656;7.568;2023-07-13T11:59:51;25.50;59.20
5617;DHT22;2830;50.656;7.568;2023-07-13T12:02:43;25.00;59.70
5617;DHT22;2830;50.656;7.568;2023-07-13T12:05:13;24.80;63.20
5617;DHT22;2830;50.656;7.568;2023-07-13T12:07:41;24.70;66.50
5617;DHT22;2830;50.656;7.568;2023-07-13T12:12:56;25.10;68.50
5617;DHT22;2830;50.656;7.568;2023-07-13T12:15:50;25.40;66.20
5617;DHT22;2830;50.656;7.568;2023-07-13T12:18:19;25.30;68.10
5617;DHT22;2830;50.656;7.568;2023-07-13T12:20:48;25.50;68.40
5617;DHT22;2830;50.656;7.568;2023-07-13T12:25:52;26.50;65.50
5617;DHT22;2830;50.656;7.568;2023-07-13T12:28:51;27.20;62.00
5617;DHT22;2830;50.656;7.568;2023-07-13T12:33:56;27.10;59.10
5617;DHT22;2830;50.656;7.568;2023-07-13T12:36:24;26.70;58.00
5617;DHT22;2830;50.656;7.568;2023-07-13T12:38:51;26.30;60.50
5617;DHT22;2830;50.656;7.568;2023-07-13T12:41:18;26.30;58.20
5617;DHT22;2830;50.656;7.568;2023-07-13T12:43:45;26.60;59.10
5617;DHT22;2830;50.656;7.568;2023-07-13T12:46:20;26.90;58.30
5617;DHT22;2830;50.656;7.568;2023-07-13T12:48:53;27.10;57.70
5617;DHT22;2830;50.656;7.568;2023-07-13T12:51:40;27.00;57.10
5617;DHT22;2830;50.656;7.568;2023-07-13T12:54:28;26.20;57.50
5617;DHT22;2830;50.656;7.568;2023-07-13T12:56:57;25.90;59.20
5617;DHT22;2830;50.656;7.568;2023-07-13T12:59:29;25.70;60.00
5617;DHT22;2830;50.656;7.568;2023-07-13T13:01:56;25.60;60.80
5617;DHT22;2830;50.656;7.568;2023-07-13T13:04:23;25.70;61.10
5617;DHT22;2830;50.656;7.568;2023-07-13T13:07:07;25.90;58.60
5617;DHT22;2830;50.656;7.568;2023-07-13T13:09:35;26.20;62.90
5617;DHT22;2830;50.656;7.568;2023-07-13T13:12:02;26.20;59.50
5617;DHT22;2830;50.656;7.568;2023-07-13T13:14:29;25.80;60.40
5617;DHT22;2830;50.656;7.568;2023-07-13T13:16:56;25.50;60.50
5617;DHT22;2830;50.656;7.568;2023-07-13T13:19:26;25.20;62.50
5617;DHT22;2830;50.656;7.568;2023-07-13T13:21:55;25.20;62.40
5617;DHT22;2830;50.656;7.568;2023-07-13T13:24:26;24.90;60.00
5617;DHT22;2830;50.656;7.568;2023-07-13T13:26:53;24.80;59.30
5617;DHT22;2830;50.656;7.568;2023-07-13T13:29:22;24.90;63.10
5617;DHT22;2830;50.656;7.568;2023-07-13T13:31:54;25.10;60.50
5617;DHT22;2830;50.656;7.568;2023-07-13T13:34:22;25.10;61.00
5617;DHT22;2830;50.656;7.568;2023-07-13T13:36:53;25.20;61.80
5617;DHT22;2830;50.656;7.568;2023-07-13T13:39:34;25.20;61.00
5617;DHT22;2830;50.656;7.568;2023-07-13T13:42:01;25.20;60.70
5617;DHT22;2830;50.656;7.568;2023-07-13T13:44:28;25.10;61.10
5617;DHT22;2830;50.656;7.568;2023-07-13T13:46:56;25.20;61.70
5617;DHT22;2830;50.656;7.568;2023-07-13T13:49:26;25.30;60.90
5617;DHT22;2830;50.656;7.568;2023-07-13T13:51:54;25.50;61.70
5617;DHT22;2830;50.656;7.568;2023-07-13T13:54:21;25.70;62.00
5617;DHT22;2830;50.656;7.568;2023-07-13T13:56:50;25.50;60.20
5617;DHT22;2830;50.656;7.568;2023-07-13T13:59:22;25.40;63.00
5617;DHT22;2830;50.656;7.568;2023-07-13T14:01:49;25.50;60.50
5617;DHT22;2830;50.656;7.568;2023-07-13T14:04:18;25.10;63.20
5617;DHT22;2830;50.656;7.568;2023-07-13T14:06:46;25.00;62.10
5617;DHT22;2830;50.656;7.568;2023-07-13T14:09:16;25.10;64.80
5617;DHT22;2830;50.656;7.568;2023-07-13T14:11:45;25.00;62.50
5617;DHT22;2830;50.656;7.568;2023-07-13T14:14:20;25.00;64.20
5617;DHT22;2830;50.656;7.568;2023-07-13T14:16:49;24.90;67.30
5617;DHT22;2830;50.656;7.568;2023-07-13T14:19:20;24.80;66.70
5617;DHT22;2830;50.656;7.568;2023-07-13T14:21:47;24.50;64.40
5617;DHT22;2830;50.656;7.568;2023-07-13T14:24:16;24.40;66.50
5617;DHT22;2830;50.656;7.568;2023-07-13T14:26:43;24.50;64.20
5617;DHT22;2830;50.656;7.568;2023-07-13T14:29:14;24.80;67.10
5617;DHT22;2830;50.656;7.568;2023-07-13T14:31:42;25.00;63.50
5617;DHT22;2830;50.656;7.568;2023-07-13T14:34:12;25.40;63.20
5617;DHT22;2830;50.656;7.568;2023-07-13T14:36:50;25.50;65.20
5617;DHT22;2830;50.656;7.568;2023-07-13T14:39:18;25.50;63.80
5617;DHT22;2830;50.656;7.568;2023-07-13T14:41:45;25.50;63.80
5617;DHT22;2830;50.656;7.568;2023-07-13T14:44:16;25.30;64.80
5617;DHT22;2830;50.656;7.568;2023-07-13T14:46:44;25.50;65.60
5617;DHT22;2830;50.656;7.568;2023-07-13T14:49:30;25.20;63.40
5617;DHT22;2830;50.656;7.568;2023-07-13T14:52:21;25.00;64.20
5617;DHT22;2830;50.656;7.568;2023-07-13T14:54:46;25.10;62.80
5617;DHT22;2830;50.656;7.568;2023-07-13T14:57:16;25.30;65.40
5617;DHT22;2830;50.656;7.568;2023-07-13T14:59:45;25.30;63.80
5617;DHT22;2830;50.656;7.568;2023-07-13T15:02:27;25.00;64.50
5617;DHT22;2830;50.656;7.568;2023-07-13T15:04:57;24.90;62.30
5617;DHT22;2830;50.656;7.568;2023-07-13T15:07:24;24.90;64.20
5617;DHT22;2830;50.656;7.568;2023-07-13T15:09:51;24.80;64.80
5617;DHT22;2830;50.656;7.568;2023-07-13T15:12:18;24.60;64.20
5617;DHT22;2830;50.656;7.568;2023-07-13T15:14:46;24.50;64.00
5617;DHT22;2830;50.656;7.568;2023-07-13T15:17:26;24.50;64.70
5617;DHT22;2830;50.656;7.568;2023-07-13T15:19:54;24.60;65.40
5617;DHT22;2830;50.656;7.568;2023-07-13T15:22:22;24.60;65.20
5617;DHT22;2830;50.656;7.568;2023-07-13T15:24:49;24.60;64.60
5617;DHT22;2830;50.656;7.568;2023-07-13T15:27:16;24.50;61.90
5617;DHT22;2830;50.656;7.568;2023-07-13T15:29:42;24.70;65.90
5617;DHT22;2830;50.656;7.568;2023-07-13T15:32:14;24.70;65.20
5617;DHT22;2830;50.656;7.568;2023-07-13T15:34:41;24.50;66.60
5617;DHT22;2830;50.656;7.568;2023-07-13T15:37:15;24.70;68.00
5617;DHT22;2830;50.656;7.568;2023-07-13T15:39:42;25.00;66.20
5617;DHT22;2830;50.656;7.568;2023-07-13T15:42:20;25.00;63.10
5617;DHT22;2830;50.656;7.568;2023-07-13T15:44:47;24.80;63.50
5617;DHT22;2830;50.656;7.568;2023-07-13T15:47:14;24.70;62.80
5617;DHT22;2830;50.656;7.568;2023-07-13T15:49:42;24.60;66.00
5617;DHT22;2830;50.656;7.568;2023-07-13T15:52:19;24.80;67.70
5617;DHT22;2830;50.656;7.568;2023-07-13T15:54:48;24.90;64.00
5617;DHT22;2830;50.656;7.568;2023-07-13T15:57:15;24.80;65.50
5617;DHT22;2830;50.656;7.568;2023-07-13T15:59:43;24.50;65.60
5617;DHT22;2830;50.656;7.568;2023-07-13T16:02:16;24.50;66.10
5617;DHT22;2830;50.656;7.568;2023-07-13T16:04:44;24.60;68.00
5617;DHT22;2830;50.656;7.568;2023-07-13T16:07:12;24.60;66.50
5617;DHT22;2830;50.656;7.568;2023-07-13T16:09:40;24.60;66.20
5617;DHT22;2830;50.656;7.568;2023-07-13T16:12:15;24.70;65.00
5617;DHT22;2830;50.656;7.568;2023-07-13T16:14:42;24.60;67.40
5617;DHT22;2830;50.656;7.568;2023-07-13T16:17:10;24.60;64.70
5617;DHT22;2830;50.656;7.568;2023-07-13T16:19:37;24.70;64.80
5617;DHT22;2830;50.656;7.568;2023-07-13T16:22:04;24.60;66.20
5617;DHT22;2830;50.656;7.568;2023-07-13T16:24:32;24.30;64.80
5617;DHT22;2830;50.656;7.568;2023-07-13T16:26:59;24.20;66.10
5617;DHT22;2830;50.656;7.568;2023-07-13T16:29:30;24.00;68.20
5617;DHT22;2830;50.656;7.568;2023-07-13T16:32:13;23.90;67.40
5617;DHT22;2830;50.656;7.568;2023-07-13T16:34:43;23.90;67.60
5617;DHT22;2830;50.656;7.568;2023-07-13T16:37:29;23.90;69.60
5617;DHT22;2830;50.656;7.568;2023-07-13T16:39:57;24.00;68.10
5617;DHT22;2830;50.656;7.568;2023-07-13T16:42:25;24.00;68.70
5617;DHT22;2830;50.656;7.568;2023-07-13T16:44:52;24.00;67.50
5617;DHT22;2830;50.656;7.568;2023-07-13T16:47:22;24.00;67.90
5617;DHT22;2830;50.656;7.568;2023-07-13T16:49:49;23.80;66.00
5617;DHT22;2830;50.656;7.568;2023-07-13T16:52:18;23.70;65.00
5617;DHT22;2830;50.656;7.568;2023-07-13T16:54:47;23.70;65.70
5617;DHT22;2830;50.656;7.568;2023-07-13T16:57:23;23.70;68.20
5617;DHT22;2830;50.656;7.568;2023-07-13T16:59:53;23.50;66.90
5617;DHT22;2830;50.656;7.568;2023-07-13T17:04:57;23.50;68.90
5617;DHT22;2830;50.656;7.568;2023-07-13T17:07:24;23.50;68.70
5617;DHT22;2830;50.656;7.568;2023-07-13T17:09:51;23.50;69.60